Time;durP1;ratioP1;P1;durP2;ratioP2;P2;SDS_P1;SDS_P2;PMS_P1;PMS_P2;Temp;Humidity;BMP_temperature;BMP_pressure;BME280_temperature;BME280_humidity;BME280_pressure;Samples;Min_cycle;Max_cycle;Signal;HPM_P1;HPM_P2
2023/12/17 00:01:14;;;;;;;2.63;1.50;;;;;;;;;;5056357;28;20029;-78
2023/12/17 00:03:40;;;;;;;3.60;1.88;;;;;;;;;;5058429;28;20101;-79
2023/12/17 00:06:07;;;;;;;2.72;1.67;;;;;;;;;;5056069;28;20032;-77
2023/12/17 00:08:33;;;;;;;2.17;1.60;;;;;;;;;;5057914;28;20025;-78
2023/12/17 00:10:59;;;;;;;2.35;1.63;;;;;;;;;;5057133;28;20029;-78
2023/12/17 00:13:25;;;;;;;2.42;1.75;;;;;;;;;;5057668;28;20017;-79
2023/12/17 00:15:51;;;;;;;2.35;1.70;;;;;;;;;;5057638;28;20116;-79
2023/12/17 00:18:18;;;;;;;1.52;1.42;;;;;;;;;;5055915;28;20040;-77
2023/12/17 00:20:44;;;;;;;3.67;1.95;;;;;;;;;;5056979;28;20036;-78
2023/12/17 00:23:10;;;;;;;2.35;1.42;;;;;;;;;;5058539;28;20029;-78
2023/12/17 00:25:36;;;;;;;1.73;1.20;;;;;;;;;;5067703;28;20032;-78
2023/12/17 00:28:02;;;;;;;1.60;1.35;;;;;;;;;;5069017;28;20073;-78
2023/12/17 00:30:29;;;;;;;1.75;1.40;;;;;;;;;;5073243;28;20047;-78
2023/12/17 00:32:55;;;;;;;1.50;1.20;;;;;;;;;;5074217;28;20024;-78
2023/12/17 00:35:22;;;;;;;2.10;1.25;;;;;;;;;;5073983;28;20013;-78
2023/12/17 00:37:48;;;;;;;1.60;1.20;;;;;;;;;;5071670;28;20029;-77
2023/12/17 00:40:14;;;;;;;3.00;1.30;;;;;;;;;;5087934;28;20025;-78
2023/12/17 00:42:40;;;;;;;2.20;1.10;;;;;;;;;;5074491;28;20017;-77
2023/12/17 00:45:07;;;;;;;2.33;1.50;;;;;;;;;;5073712;28;20080;-78
2023/12/17 00:47:33;;;;;;;1.60;1.25;;;;;;;;;;5072224;28;20082;-78
2023/12/17 00:49:59;;;;;;;2.72;1.70;;;;;;;;;;5066439;28;20025;-79
2023/12/17 00:52:25;;;;;;;1.75;1.00;;;;;;;;;;5069032;28;20102;-79
2023/12/17 00:54:51;;;;;;;1.15;1.05;;;;;;;;;;5083589;28;20051;-79
2023/12/17 00:57:18;;;;;;;1.23;0.95;;;;;;;;;;5061713;28;20025;-78
2023/12/17 00:59:44;;;;;;;1.38;0.80;;;;;;;;;;5063314;28;20053;-78
2023/12/17 01:02:10;;;;;;;1.00;0.90;;;;;;;;;;5061103;28;20041;-78
2023/12/17 01:04:37;;;;;;;2.05;1.08;;;;;;;;;;5057763;28;20025;-79
2023/12/17 01:07:03;;;;;;;1.25;0.98;;;;;;;;;;5061506;28;20017;-79
2023/12/17 01:09:29;;;;;;;1.45;1.00;;;;;;;;;;5057981;28;20029;-78
2023/12/17 01:11:57;;;;;;;0.73;0.73;;;;;;;;;;5057969;28;20013;-78
2023/12/17 01:14:24;;;;;;;1.30;0.80;;;;;;;;;;5057696;28;20381;-78
2023/12/17 01:16:50;;;;;;;2.22;1.17;;;;;;;;;;5056682;28;20028;-77
2023/12/17 01:19:16;;;;;;;1.20;0.80;;;;;;;;;;5059615;28;20320;-79
2023/12/17 01:21:42;;;;;;;1.35;0.70;;;;;;;;;;5068788;28;20021;-79
2023/12/17 01:24:09;;;;;;;1.02;0.80;;;;;;;;;;5057932;28;20403;-77
2023/12/17 01:26:35;;;;;;;1.02;0.63;;;;;;;;;;5058252;28;20075;-78
2023/12/17 01:29:01;;;;;;;1.17;0.98;;;;;;;;;;5059105;28;20020;-79
2023/12/17 01:31:28;;;;;;;1.00;0.85;;;;;;;;;;5058203;28;20151;-79
2023/12/17 01:33:54;;;;;;;1.13;0.70;;;;;;;;;;5055184;28;20028;-78
2023/12/17 01:36:20;;;;;;;1.10;0.60;;;;;;;;;;5053220;28;20437;-77
2023/12/17 01:38:46;;;;;;;0.73;0.73;;;;;;;;;;5071328;28;20016;-78
2023/12/17 01:41:12;;;;;;;1.00;0.77;;;;;;;;;;5073433;28;20040;-78
2023/12/17 01:43:39;;;;;;;0.98;0.88;;;;;;;;;;5082568;28;20096;-77
2023/12/17 01:46:05;;;;;;;0.80;0.80;;;;;;;;;;5061782;28;20056;-78
2023/12/17 01:48:32;;;;;;;1.17;0.90;;;;;;;;;;5052245;28;20028;-79
2023/12/17 01:50:58;;;;;;;1.38;1.10;;;;;;;;;;5057220;28;20033;-78
2023/12/17 01:53:24;;;;;;;0.93;0.60;;;;;;;;;;5058580;28;20017;-78
2023/12/17 01:55:50;;;;;;;1.35;0.90;;;;;;;;;;5057855;28;20394;-77
2023/12/17 01:58:17;;;;;;;1.55;0.75;;;;;;;;;;5055412;28;20040;-77
2023/12/17 02:00:44;;;;;;;0.88;0.68;;;;;;;;;;5057330;28;20017;-78
2023/12/17 02:03:10;;;;;;;0.80;0.65;;;;;;;;;;5057428;28;20037;-78
2023/12/17 02:05:37;;;;;;;0.68;0.68;;;;;;;;;;5057303;28;20130;-77
2023/12/17 02:08:03;;;;;;;0.70;0.70;;;;;;;;;;5056307;28;20407;-78
2023/12/17 02:10:30;;;;;;;0.43;0.40;;;;;;;;;;5055335;28;20045;-78
2023/12/17 02:12:59;;;;;;;0.73;0.52;;;;;;;;;;5056104;28;20442;-78
2023/12/17 02:15:25;;;;;;;0.52;0.52;;;;;;;;;;5058253;28;20020;-78
2023/12/17 02:17:51;;;;;;;0.40;0.40;;;;;;;;;;5055417;28;20040;-79
2023/12/17 02:20:17;;;;;;;0.47;0.40;;;;;;;;;;5054208;28;20074;-78
2023/12/17 02:22:44;;;;;;;0.93;0.70;;;;;;;;;;5056221;28;20552;-78
2023/12/17 02:25:10;;;;;;;0.43;0.40;;;;;;;;;;5072972;28;20086;-77
2023/12/17 02:27:37;;;;;;;0.82;0.63;;;;;;;;;;5058421;28;20021;-77
2023/12/17 02:30:03;;;;;;;1.00;0.50;;;;;;;;;;5058233;28;20020;-78
2023/12/17 02:32:29;;;;;;;0.77;0.75;;;;;;;;;;5058540;28;20365;-78
2023/12/17 02:34:55;;;;;;;1.38;0.82;;;;;;;;;;5071710;28;20739;-78
2023/12/17 02:37:22;;;;;;;0.65;0.60;;;;;;;;;;5058184;28;20112;-79
2023/12/17 02:39:48;;;;;;;0.82;0.63;;;;;;;;;;5052944;28;20032;-78
2023/12/17 02:42:14;;;;;;;0.73;0.60;;;;;;;;;;5049745;28;20021;-78
2023/12/17 02:44:40;;;;;;;0.65;0.50;;;;;;;;;;5054946;28;20090;-78
2023/12/17 02:47:06;;;;;;;0.82;0.80;;;;;;;;;;5053532;28;20017;-78
2023/12/17 02:49:33;;;;;;;0.80;0.60;;;;;;;;;;5057116;28;20025;-78
2023/12/17 02:52:00;;;;;;;0.50;0.50;;;;;;;;;;5056652;28;20043;-79
2023/12/17 02:54:26;;;;;;;0.52;0.50;;;;;;;;;;5055317;28;20021;-79
2023/12/17 02:56:52;;;;;;;0.80;0.70;;;;;;;;;;5066816;28;20028;-78
2023/12/17 02:59:18;;;;;;;0.47;0.47;;;;;;;;;;5056483;28;20025;-79
2023/12/17 03:01:45;;;;;;;0.77;0.77;;;;;;;;;;5044643;28;20023;-78
2023/12/17 03:04:11;;;;;;;2.55;0.88;;;;;;;;;;5062882;28;20045;-78
2023/12/17 03:06:38;;;;;;;0.68;0.65;;;;;;;;;;5060100;28;20040;-77
2023/12/17 03:09:05;;;;;;;1.13;0.82;;;;;;;;;;5068381;28;20028;-78
2023/12/17 03:11:31;;;;;;;0.90;0.90;;;;;;;;;;5055605;28;20029;-77
2023/12/17 03:13:57;;;;;;;1.10;0.70;;;;;;;;;;5057256;28;20021;-78
2023/12/17 03:16:24;;;;;;;1.20;0.95;;;;;;;;;;5058226;28;20039;-76
2023/12/17 03:18:51;;;;;;;0.80;0.80;;;;;;;;;;5061342;28;20033;-76
2023/12/17 03:21:17;;;;;;;1.45;1.10;;;;;;;;;;5063814;28;20104;-78
2023/12/17 03:23:43;;;;;;;1.30;0.85;;;;;;;;;;5062923;28;20025;-77
2023/12/17 03:26:09;;;;;;;0.70;0.70;;;;;;;;;;5062256;28;20395;-77
2023/12/17 03:28:35;;;;;;;0.77;0.60;;;;;;;;;;5057329;28;20108;-77
2023/12/17 03:31:02;;;;;;;1.25;0.88;;;;;;;;;;5055934;28;20060;-76
2023/12/17 03:33:28;;;;;;;0.65;0.60;;;;;;;;;;5062101;28;20021;-76
2023/12/17 03:35:54;;;;;;;0.60;0.60;;;;;;;;;;5062774;28;20107;-79
2023/12/17 03:38:20;;;;;;;1.08;0.77;;;;;;;;;;5060009;28;20036;-79
2023/12/17 03:40:47;;;;;;;1.25;0.95;;;;;;;;;;5060669;28;20021;-78
2023/12/17 03:43:13;;;;;;;0.82;0.52;;;;;;;;;;5062778;28;20064;-78
2023/12/17 03:45:39;;;;;;;1.08;0.70;;;;;;;;;;5059350;28;20025;-78
2023/12/17 03:48:07;;;;;;;0.65;0.60;;;;;;;;;;5058118;28;20104;-78
2023/12/17 03:50:33;;;;;;;0.63;0.55;;;;;;;;;;5059781;28;20100;-78
2023/12/17 03:52:59;;;;;;;0.75;0.40;;;;;;;;;;5065721;28;20031;-78
2023/12/17 03:55:26;;;;;;;0.80;0.60;;;;;;;;;;5077106;28;20025;-77
2023/12/17 03:57:52;;;;;;;0.40;0.40;;;;;;;;;;5069055;28;20048;-78
2023/12/17 04:00:18;;;;;;;0.40;0.40;;;;;;;;;;5067989;28;20033;-78
2023/12/17 04:02:44;;;;;;;0.98;0.65;;;;;;;;;;5070406;28;20050;-78
2023/12/17 04:05:10;;;;;;;1.15;0.68;;;;;;;;;;5069461;28;20021;-77
2023/12/17 04:07:36;;;;;;;0.40;0.35;;;;;;;;;;5060401;28;20021;-78
2023/12/17 04:10:04;;;;;;;0.60;0.60;;;;;;;;;;5073066;28;20025;-79
2023/12/17 04:12:30;;;;;;;0.57;0.57;;;;;;;;;;5055806;28;20104;-78
2023/12/17 04:14:56;;;;;;;0.77;0.60;;;;;;;;;;5057214;28;20033;-78
2023/12/17 04:17:22;;;;;;;0.60;0.60;;;;;;;;;;5051128;28;20025;-78
2023/12/17 04:19:49;;;;;;;0.50;0.43;;;;;;;;;;5055770;28;20041;-78
2023/12/17 04:22:15;;;;;;;2.38;0.70;;;;;;;;;;5056437;28;20410;-79
2023/12/17 04:24:41;;;;;;;0.85;0.60;;;;;;;;;;5055275;28;20029;-78
2023/12/17 04:27:07;;;;;;;1.50;0.88;;;;;;;;;;5071605;28;20382;-77
2023/12/17 04:29:33;;;;;;;2.47;0.50;;;;;;;;;;5073750;28;20063;-78
2023/12/17 04:31:59;;;;;;;1.05;0.80;;;;;;;;;;5062719;28;20031;-78
2023/12/17 04:34:25;;;;;;;0.70;0.70;;;;;;;;;;5062743;28;20032;-77
2023/12/17 04:36:52;;;;;;;1.73;0.85;;;;;;;;;;5063612;28;20067;-77
2023/12/17 04:39:20;;;;;;;1.23;0.90;;;;;;;;;;5061925;28;20048;-79
2023/12/17 04:41:46;;;;;;;1.67;0.90;;;;;;;;;;5060494;28;20041;-77
2023/12/17 04:44:12;;;;;;;1.08;0.65;;;;;;;;;;5053965;28;20088;-77
2023/12/17 04:46:39;;;;;;;1.85;0.80;;;;;;;;;;5062479;28;20126;-78
2023/12/17 04:49:05;;;;;;;1.40;1.30;;;;;;;;;;5057710;28;20025;-78
2023/12/17 04:51:31;;;;;;;0.80;0.80;;;;;;;;;;5058050;28;20025;-79
2023/12/17 04:53:57;;;;;;;2.65;1.15;;;;;;;;;;5060314;28;20096;-78
2023/12/17 04:56:23;;;;;;;1.42;0.93;;;;;;;;;;5062234;28;20029;-78
2023/12/17 04:58:49;;;;;;;1.00;0.70;;;;;;;;;;5061792;28;20137;-78
2023/12/17 05:01:15;;;;;;;0.68;0.68;;;;;;;;;;5060620;28;20029;-78
2023/12/17 05:03:42;;;;;;;0.80;0.60;;;;;;;;;;5058725;28;20036;-77
2023/12/17 05:06:08;;;;;;;0.95;0.60;;;;;;;;;;5059883;28;20029;-77
2023/12/17 05:08:34;;;;;;;0.70;0.65;;;;;;;;;;5060343;28;20025;-77
2023/12/17 05:11:00;;;;;;;0.77;0.77;;;;;;;;;;5063271;28;20044;-77
2023/12/17 05:13:26;;;;;;;1.40;0.95;;;;;;;;;;5063033;28;20025;-78
2023/12/17 05:15:53;;;;;;;1.15;0.65;;;;;;;;;;5064447;28;20036;-78
2023/12/17 05:18:19;;;;;;;1.25;0.95;;;;;;;;;;5058016;28;20037;-78
2023/12/17 05:20:45;;;;;;;0.95;0.85;;;;;;;;;;5064667;28;20017;-78
2023/12/17 05:23:15;;;;;;;1.35;0.85;;;;;;;;;;5066383;28;20037;-78
2023/12/17 05:25:41;;;;;;;0.93;0.90;;;;;;;;;;5069534;28;20524;-78
2023/12/17 05:28:09;;;;;;;1.33;0.80;;;;;;;;;;5081313;28;20169;-77
2023/12/17 05:30:35;;;;;;;0.85;0.85;;;;;;;;;;5072635;28;20072;-77
2023/12/17 05:33:01;;;;;;;0.75;0.75;;;;;;;;;;5066183;28;20021;-78
2023/12/17 05:35:28;;;;;;;0.88;0.60;;;;;;;;;;5062541;28;20028;-77
2023/12/17 05:37:54;;;;;;;0.90;0.80;;;;;;;;;;5062700;28;20033;-77
2023/12/17 05:40:20;;;;;;;0.63;0.63;;;;;;;;;;5067179;28;20103;-78
2023/12/17 05:42:46;;;;;;;0.60;0.60;;;;;;;;;;5063640;28;20073;-77
2023/12/17 05:45:12;;;;;;;1.05;0.70;;;;;;;;;;5061735;28;20498;-78
2023/12/17 05:47:41;;;;;;;0.68;0.47;;;;;;;;;;5054837;28;20029;-77
2023/12/17 05:50:10;;;;;;;1.05;0.70;;;;;;;;;;5082380;28;20021;-78
2023/12/17 05:52:36;;;;;;;0.40;0.40;;;;;;;;;;5068514;28;20458;-78
2023/12/17 05:55:03;;;;;;;0.73;0.43;;;;;;;;;;5058751;28;20025;-77
2023/12/17 05:57:29;;;;;;;0.60;0.52;;;;;;;;;;5067363;28;20040;-78
2023/12/17 05:59:55;;;;;;;0.50;0.50;;;;;;;;;;5058400;28;20441;-79
2023/12/17 06:02:21;;;;;;;0.77;0.50;;;;;;;;;;5061256;28;20039;-78
2023/12/17 06:04:47;;;;;;;0.90;0.47;;;;;;;;;;5059794;28;20028;-78
2023/12/17 06:07:13;;;;;;;0.57;0.50;;;;;;;;;;5067102;28;20025;-77
2023/12/17 06:09:40;;;;;;;0.50;0.50;;;;;;;;;;5054758;28;20028;-78
2023/12/17 06:12:07;;;;;;;0.60;0.60;;;;;;;;;;5060502;28;20020;-78
2023/12/17 06:14:33;;;;;;;0.55;0.38;;;;;;;;;;5060521;28;20425;-78
2023/12/17 06:16:59;;;;;;;0.60;0.40;;;;;;;;;;5060523;28;20068;-78
2023/12/17 06:19:25;;;;;;;0.40;0.40;;;;;;;;;;5058275;28;20025;-77
2023/12/17 06:21:51;;;;;;;0.47;0.47;;;;;;;;;;5058271;28;20021;-79
2023/12/17 06:24:17;;;;;;;1.05;0.50;;;;;;;;;;5058245;28;20450;-78
2023/12/17 06:26:43;;;;;;;0.77;0.70;;;;;;;;;;5058884;28;20070;-80
2023/12/17 06:29:13;;;;;;;0.50;0.50;;;;;;;;;;5056885;28;20075;-79
2023/12/17 06:31:42;;;;;;;0.77;0.50;;;;;;;;;;5057273;28;20028;-78
2023/12/17 06:34:08;;;;;;;0.50;0.43;;;;;;;;;;5055297;28;20021;-76
2023/12/17 06:36:34;;;;;;;0.50;0.50;;;;;;;;;;5055334;28;20423;-76
2023/12/17 06:39:00;;;;;;;0.65;0.60;;;;;;;;;;5055325;28;20036;-76
2023/12/17 06:41:27;;;;;;;0.65;0.55;;;;;;;;;;5054582;28;20021;-76
2023/12/17 06:43:53;;;;;;;0.68;0.50;;;;;;;;;;5058167;28;20033;-77
2023/12/17 06:46:19;;;;;;;0.30;0.30;;;;;;;;;;5052415;28;20096;-77
2023/12/17 06:48:48;;;;;;;0.40;0.40;;;;;;;;;;5062397;28;20028;-77
2023/12/17 06:51:15;;;;;;;0.38;0.38;;;;;;;;;;5064101;28;20037;-76
2023/12/17 06:53:41;;;;;;;0.70;0.60;;;;;;;;;;5061606;28;20024;-76
2023/12/17 06:56:07;;;;;;;0.20;0.20;;;;;;;;;;5054604;28;20029;-77
2023/12/17 06:58:33;;;;;;;1.77;0.43;;;;;;;;;;5054306;28;20501;-77
2023/12/17 07:01:00;;;;;;;0.30;0.30;;;;;;;;;;5056709;28;20025;-77
2023/12/17 07:03:26;;;;;;;0.25;0.25;;;;;;;;;;5061550;28;20492;-75
2023/12/17 07:05:52;;;;;;;0.30;0.30;;;;;;;;;;5058409;28;20021;-76
2023/12/17 07:08:18;;;;;;;0.60;0.35;;;;;;;;;;5050207;28;20167;-76
2023/12/17 07:10:45;;;;;;;0.55;0.55;;;;;;;;;;5054952;28;20471;-77
2023/12/17 07:13:11;;;;;;;0.73;0.45;;;;;;;;;;5062058;28;20025;-76
2023/12/17 07:15:37;;;;;;;0.55;0.40;;;;;;;;;;5070158;28;20063;-77
2023/12/17 07:18:03;;;;;;;0.45;0.40;;;;;;;;;;5053983;28;20660;-75
2023/12/17 07:20:29;;;;;;;1.40;0.35;;;;;;;;;;5054121;28;20690;-76
2023/12/17 07:22:56;;;;;;;0.40;0.40;;;;;;;;;;5054510;28;20037;-75
2023/12/17 07:25:24;;;;;;;0.40;0.40;;;;;;;;;;5053848;28;20479;-77
2023/12/17 07:27:50;;;;;;;0.30;0.30;;;;;;;;;;5053553;28;20147;-76
2023/12/17 07:30:16;;;;;;;0.50;0.20;;;;;;;;;;5054720;28;20096;-76
2023/12/17 07:32:42;;;;;;;0.35;0.35;;;;;;;;;;5058642;28;20730;-76
2023/12/17 07:35:09;;;;;;;0.57;0.20;;;;;;;;;;5055290;28;20033;-77
2023/12/17 07:37:35;;;;;;;0.30;0.30;;;;;;;;;;5054834;28;20171;-76
2023/12/17 07:40:01;;;;;;;0.55;0.35;;;;;;;;;;5055048;28;20094;-76
2023/12/17 07:42:28;;;;;;;0.30;0.20;;;;;;;;;;5054225;28;20079;-76
2023/12/17 07:44:54;;;;;;;0.52;0.30;;;;;;;;;;5055186;28;20044;-75
2023/12/17 07:47:20;;;;;;;0.30;0.30;;;;;;;;;;5054726;28;20075;-76
2023/12/17 07:49:47;;;;;;;0.30;0.30;;;;;;;;;;5054721;28;20069;-77
2023/12/17 07:52:13;;;;;;;0.52;0.47;;;;;;;;;;5055918;28;20073;-76
2023/12/17 07:54:44;;;;;;;0.65;0.40;;;;;;;;;;5056371;28;20064;-77
2023/12/17 07:57:10;;;;;;;0.30;0.30;;;;;;;;;;5057622;28;20032;-79
2023/12/17 07:59:36;;;;;;;0.52;0.40;;;;;;;;;;5074881;28;20029;-78
2023/12/17 08:02:03;;;;;;;0.40;0.40;;;;;;;;;;5064388;28;20631;-77
2023/12/17 08:04:29;;;;;;;0.93;0.60;;;;;;;;;;5072050;28;20035;-77
2023/12/17 08:06:55;;;;;;;0.45;0.32;;;;;;;;;;5060048;28;20029;-77
2023/12/17 08:09:21;;;;;;;1.48;0.50;;;;;;;;;;5057851;28;20074;-78
2023/12/17 08:11:47;;;;;;;0.85;0.65;;;;;;;;;;5060965;28;20048;-77
2023/12/17 08:14:13;;;;;;;0.90;0.70;;;;;;;;;;5058237;28;20507;-77
2023/12/17 08:16:42;;;;;;;0.60;0.60;;;;;;;;;;5060588;28;20056;-77
2023/12/17 08:19:08;;;;;;;0.90;0.70;;;;;;;;;;5058834;28;20092;-77
2023/12/17 08:21:35;;;;;;;1.58;0.85;;;;;;;;;;5063863;28;20039;-78
2023/12/17 08:24:01;;;;;;;2.33;0.98;;;;;;;;;;5058677;28;20071;-77
2023/12/17 08:26:27;;;;;;;1.50;1.00;;;;;;;;;;5055580;28;20025;-78
2023/12/17 08:28:53;;;;;;;1.10;1.00;;;;;;;;;;5058782;28;20376;-77
2023/12/17 08:31:20;;;;;;;0.90;0.90;;;;;;;;;;5052717;28;20041;-76
2023/12/17 08:33:51;;;;;;;1.00;0.80;;;;;;;;;;5057467;28;20024;-78
2023/12/17 08:36:17;;;;;;;1.42;0.88;;;;;;;;;;5062744;28;20033;-79
2023/12/17 08:38:45;;;;;;;1.45;1.10;;;;;;;;;;5063072;28;20092;-77
2023/12/17 08:41:12;;;;;;;1.27;1.00;;;;;;;;;;5061836;28;20032;-77
2023/12/17 08:43:38;;;;;;;1.95;1.23;;;;;;;;;;5051514;28;20025;-78
2023/12/17 08:46:07;;;;;;;1.77;0.70;;;;;;;;;;5056317;28;20395;-77
2023/12/17 08:48:33;;;;;;;0.98;0.75;;;;;;;;;;5065440;28;20032;-78
2023/12/17 08:51:00;;;;;;;1.40;0.80;;;;;;;;;;5060451;28;20048;-78
2023/12/17 08:53:26;;;;;;;1.90;1.27;;;;;;;;;;5064659;28;20108;-78
2023/12/17 08:55:52;;;;;;;1.05;0.65;;;;;;;;;;5061224;28;20071;-78
2023/12/17 08:58:19;;;;;;;0.63;0.63;;;;;;;;;;5059428;28;20437;-77
2023/12/17 09:00:45;;;;;;;1.27;0.70;;;;;;;;;;5062575;28;20029;-78
2023/12/17 09:03:11;;;;;;;0.70;0.60;;;;;;;;;;5063541;28;20069;-78
2023/12/17 09:05:37;;;;;;;1.20;1.10;;;;;;;;;;5070793;28;20048;-78
2023/12/17 09:08:03;;;;;;;0.57;0.57;;;;;;;;;;5064060;28;20103;-77
2023/12/17 09:10:30;;;;;;;0.80;0.60;;;;;;;;;;5069443;28;20084;-77
2023/12/17 09:12:56;;;;;;;0.70;0.50;;;;;;;;;;5056936;28;20040;-77
2023/12/17 09:15:22;;;;;;;0.98;0.77;;;;;;;;;;5064464;28;20033;-77
2023/12/17 09:17:49;;;;;;;0.85;0.63;;;;;;;;;;5062875;28;20037;-78
2023/12/17 09:20:16;;;;;;;0.50;0.40;;;;;;;;;;5064214;28;20035;-78
2023/12/17 09:22:42;;;;;;;0.85;0.77;;;;;;;;;;5063279;28;20056;-78
2023/12/17 09:25:09;;;;;;;0.50;0.40;;;;;;;;;;5060736;28;20033;-76
2023/12/17 09:27:35;;;;;;;0.95;0.63;;;;;;;;;;5060553;28;20081;-77
2023/12/17 09:30:02;;;;;;;0.65;0.55;;;;;;;;;;5060119;28;20448;-78
2023/12/17 09:32:28;;;;;;;0.95;0.63;;;;;;;;;;5059529;28;20075;-78
2023/12/17 09:34:54;;;;;;;0.47;0.47;;;;;;;;;;5059365;28;20039;-78
2023/12/17 09:37:20;;;;;;;0.93;0.80;;;;;;;;;;5060836;28;20029;-78
2023/12/17 09:39:46;;;;;;;0.75;0.60;;;;;;;;;;5058994;28;20048;-78
2023/12/17 09:42:13;;;;;;;0.75;0.52;;;;;;;;;;5061359;28;20151;-77
2023/12/17 09:44:40;;;;;;;0.82;0.82;;;;;;;;;;5061439;28;20043;-78
2023/12/17 09:47:06;;;;;;;0.73;0.70;;;;;;;;;;5062550;28;20073;-76
2023/12/17 09:49:32;;;;;;;0.95;0.63;;;;;;;;;;5064646;28;20175;-77
2023/12/17 09:52:11;;;;;;;0.50;0.50;;;;;;;;;;5064264;28;20029;-77
2023/12/17 09:54:37;;;;;;;0.40;0.40;;;;;;;;;;5061965;28;20017;-77
2023/12/17 09:57:05;;;;;;;0.40;0.40;;;;;;;;;;5065145;28;20053;-76
2023/12/17 09:59:31;;;;;;;0.40;0.40;;;;;;;;;;5061152;28;20344;-77
2023/12/17 10:01:57;;;;;;;0.80;0.63;;;;;;;;;;5060319;28;20021;-76
2023/12/17 10:04:27;;;;;;;0.50;0.50;;;;;;;;;;5060237;28;20132;-77
2023/12/17 10:06:53;;;;;;;0.60;0.60;;;;;;;;;;5064342;28;20032;-77
2023/12/17 10:09:20;;;;;;;0.50;0.50;;;;;;;;;;5054578;28;20025;-77
2023/12/17 10:11:46;;;;;;;0.65;0.57;;;;;;;;;;5060465;28;20116;-77
2023/12/17 10:14:25;;;;;;;0.68;0.60;;;;;;;;;;5064017;28;20426;-77
2023/12/17 10:16:52;;;;;;;0.80;0.77;;;;;;;;;;5062147;28;20025;-77
2023/12/17 10:19:18;;;;;;;1.08;0.60;;;;;;;;;;5059537;28;20069;-77
2023/12/17 10:21:44;;;;;;;1.05;0.80;;;;;;;;;;5060129;28;20037;-78
2023/12/17 10:24:11;;;;;;;0.90;0.77;;;;;;;;;;5065719;28;20455;-77
2023/12/17 10:26:47;;;;;;;2.38;1.13;;;;;;;;;;5057025;28;20025;-77
2023/12/17 10:29:15;;;;;;;1.40;0.98;;;;;;;;;;5057782;28;20029;-77
2023/12/17 10:31:42;;;;;;;0.80;0.73;;;;;;;;;;5057380;28;20032;-77
2023/12/17 10:34:18;;;;;;;1.17;0.88;;;;;;;;;;5057920;28;20114;-77
2023/12/17 10:36:48;;;;;;;0.57;0.57;;;;;;;;;;5056737;28;20081;-77
2023/12/17 10:39:14;;;;;;;0.43;0.40;;;;;;;;;;5058038;28;20109;-77
2023/12/17 10:41:41;;;;;;;0.50;0.50;;;;;;;;;;5057493;28;20036;-77
2023/12/17 10:44:12;;;;;;;0.57;0.57;;;;;;;;;;5057808;28;20368;-77
2023/12/17 10:46:40;;;;;;;0.45;0.45;;;;;;;;;;5056033;28;20036;-77
2023/12/17 10:49:08;;;;;;;0.70;0.68;;;;;;;;;;5056591;28;20483;-77
2023/12/17 10:51:35;;;;;;;0.50;0.50;;;;;;;;;;5059120;28;20483;-76
2023/12/17 10:54:01;;;;;;;1.17;0.60;;;;;;;;;;5057257;28;20025;-77
2023/12/17 10:56:31;;;;;;;0.82;0.50;;;;;;;;;;5058303;28;20130;-75
2023/12/17 10:58:57;;;;;;;0.65;0.40;;;;;;;;;;5047792;28;20044;-77
2023/12/17 11:01:25;;;;;;;0.50;0.43;;;;;;;;;;5055853;28;20253;-78
2023/12/17 11:03:51;;;;;;;0.43;0.40;;;;;;;;;;5056473;28;20025;-77
2023/12/17 11:06:17;;;;;;;0.70;0.70;;;;;;;;;;5056145;28;20029;-77
2023/12/17 11:08:44;;;;;;;0.50;0.50;;;;;;;;;;5060550;28;20021;-78
2023/12/17 11:11:10;;;;;;;0.47;0.40;;;;;;;;;;5060790;28;20035;-77
2023/12/17 11:13:36;;;;;;;0.50;0.50;;;;;;;;;;5061205;28;20063;-79
2023/12/17 11:16:21;;;;;;;0.88;0.30;;;;;;;;;;5063127;28;20025;-76
2023/12/17 11:18:48;;;;;;;0.65;0.50;;;;;;;;;;5056276;28;20034;-77
2023/12/17 11:21:15;;;;;;;0.45;0.45;;;;;;;;;;5090294;28;20029;-77
2023/12/17 11:23:41;;;;;;;0.50;0.50;;;;;;;;;;5074613;28;20450;-78
2023/12/17 11:26:07;;;;;;;0.30;0.30;;;;;;;;;;5089560;28;20029;-77
2023/12/17 11:28:33;;;;;;;1.30;0.68;;;;;;;;;;5063669;28;20013;-77
2023/12/17 11:30:59;;;;;;;1.33;0.40;;;;;;;;;;5066520;28;20057;-76
2023/12/17 11:33:26;;;;;;;0.65;0.50;;;;;;;;;;5065813;28;20071;-77
2023/12/17 11:35:52;;;;;;;1.35;0.68;;;;;;;;;;5071424;28;20036;-77
2023/12/17 11:38:20;;;;;;;2.20;1.27;;;;;;;;;;5067037;28;20064;-77
2023/12/17 11:40:46;;;;;;;1.60;1.13;;;;;;;;;;5062057;28;20112;-77
2023/12/17 11:43:12;;;;;;;1.63;1.13;;;;;;;;;;5061879;28;20041;-77
2023/12/17 11:45:47;;;;;;;2.35;1.48;;;;;;;;;;5062705;28;20029;-76
2023/12/17 11:48:14;;;;;;;1.60;1.27;;;;;;;;;;5059556;28;20017;-78
2023/12/17 11:50:44;;;;;;;3.42;1.50;;;;;;;;;;5058967;28;20086;-77
2023/12/17 11:53:11;;;;;;;4.10;3.17;;;;;;;;;;5067205;28;20503;-79
2023/12/17 11:55:44;;;;;;;3.90;2.72;;;;;;;;;;5055919;28;20112;-77
2023/12/17 11:58:10;;;;;;;3.28;2.75;;;;;;;;;;5062110;28;20087;-77
2023/12/17 12:00:37;;;;;;;2.92;2.22;;;;;;;;;;5054047;28;20372;-77
2023/12/17 12:03:03;;;;;;;2.90;2.05;;;;;;;;;;5058380;28;20074;-78
2023/12/17 12:05:29;;;;;;;2.85;1.80;;;;;;;;;;5051903;28;20028;-76
2023/12/17 12:07:57;;;;;;;2.45;1.83;;;;;;;;;;5050303;28;20064;-77
2023/12/17 12:10:23;;;;;;;2.33;1.67;;;;;;;;;;5054763;28;20025;-77
2023/12/17 12:13:05;;;;;;;1.95;1.60;;;;;;;;;;5055042;28;20640;-76
2023/12/17 12:15:32;;;;;;;1.58;1.30;;;;;;;;;;5053557;28;20068;-77
2023/12/17 12:17:58;;;;;;;1.98;1.50;;;;;;;;;;5053135;28;20041;-75
2023/12/17 12:20:38;;;;;;;1.60;1.02;;;;;;;;;;5059005;28;20037;-77
2023/12/17 12:23:10;;;;;;;1.10;1.00;;;;;;;;;;5047468;28;20039;-77
2023/12/17 12:25:36;;;;;;;;;;;;;;;;;;5052903;28;20416;-76
2023/12/17 12:28:03;;;;;;;0.82;0.80;;;;;;;;;;5053241;28;19951;-76
2023/12/17 12:30:29;;;;;;;1.10;1.00;;;;;;;;;;5064469;28;20025;-78
2023/12/17 12:32:56;;;;;;;1.63;0.93;;;;;;;;;;5049174;28;20052;-76
2023/12/17 12:35:29;;;;;;;0.95;0.73;;;;;;;;;;5061824;28;20052;-77
2023/12/17 12:37:57;;;;;;;1.15;0.98;;;;;;;;;;5073170;28;20380;-76
2023/12/17 12:40:30;;;;;;;0.80;0.80;;;;;;;;;;5051583;28;20025;-76
2023/12/17 12:43:03;;;;;;;0.47;0.47;;;;;;;;;;5052593;28;20024;-77
2023/12/17 12:45:29;;;;;;;0.85;0.70;;;;;;;;;;5057096;28;20033;-77
2023/12/17 12:47:56;;;;;;;0.90;0.63;;;;;;;;;;5049039;28;20021;-77
2023/12/17 12:50:22;;;;;;;0.70;0.68;;;;;;;;;;5052964;28;20013;-77
2023/12/17 12:52:49;;;;;;;0.47;0.40;;;;;;;;;;5053303;28;20067;-77
2023/12/17 12:55:15;;;;;;;0.30;0.30;;;;;;;;;;5054655;28;20028;-77
2023/12/17 12:57:41;;;;;;;0.93;0.70;;;;;;;;;;5053487;28;20028;-77
2023/12/17 13:00:07;;;;;;;0.30;0.30;;;;;;;;;;5056998;28;20050;-76
2023/12/17 13:02:33;;;;;;;0.95;0.60;;;;;;;;;;5058433;28;20096;-76
2023/12/17 13:05:00;;;;;;;0.55;0.50;;;;;;;;;;5060653;28;20099;-77
2023/12/17 13:07:26;;;;;;;0.47;0.40;;;;;;;;;;5053660;28;20036;-77
2023/12/17 13:09:52;;;;;;;0.32;0.32;;;;;;;;;;5059929;28;20017;-77
2023/12/17 13:12:18;;;;;;;0.50;0.40;;;;;;;;;;5056349;28;20185;-77
2023/12/17 13:14:44;;;;;;;0.40;0.40;;;;;;;;;;5055288;28;20020;-78
2023/12/17 13:17:11;;;;;;;0.57;0.57;;;;;;;;;;5051845;28;20025;-78
2023/12/17 13:19:38;;;;;;;0.40;0.40;;;;;;;;;;5060983;28;20359;-78
2023/12/17 13:22:04;;;;;;;0.45;0.45;;;;;;;;;;5062683;28;20056;-80
2023/12/17 13:24:30;;;;;;;0.38;0.38;;;;;;;;;;5055461;28;20097;-78
2023/12/17 13:26:56;;;;;;;0.50;0.50;;;;;;;;;;5064914;28;20036;-78
2023/12/17 13:29:22;;;;;;;0.50;0.50;;;;;;;;;;5062359;28;20021;-78
2023/12/17 13:31:48;;;;;;;0.60;0.50;;;;;;;;;;5067031;28;20017;-78
2023/12/17 13:34:17;;;;;;;0.82;0.80;;;;;;;;;;5070900;28;20437;-78
2023/12/17 13:36:43;;;;;;;1.15;0.60;;;;;;;;;;5059268;28;20021;-78
2023/12/17 13:39:09;;;;;;;0.52;0.52;;;;;;;;;;5063023;28;20037;-79
2023/12/17 13:41:35;;;;;;;0.85;0.40;;;;;;;;;;5059033;28;20075;-79
2023/12/17 13:44:03;;;;;;;0.40;0.40;;;;;;;;;;5059606;28;20492;-78
2023/12/17 13:46:29;;;;;;;0.55;0.52;;;;;;;;;;5071526;28;20040;-79
2023/12/17 13:48:55;;;;;;;0.63;0.57;;;;;;;;;;5072358;28;20028;-79
2023/12/17 13:51:21;;;;;;;0.55;0.55;;;;;;;;;;5074969;28;20043;-78
2023/12/17 13:53:48;;;;;;;1.08;0.50;;;;;;;;;;5060988;28;20457;-78
2023/12/17 13:56:15;;;;;;;1.33;0.63;;;;;;;;;;5074665;28;20039;-80
2023/12/17 13:58:41;;;;;;;0.70;0.70;;;;;;;;;;5075239;28;20016;-79
2023/12/17 14:01:08;;;;;;;0.73;0.70;;;;;;;;;;5070631;28;20044;-79
2023/12/17 14:03:34;;;;;;;0.95;0.75;;;;;;;;;;5064190;28;20112;-79
2023/12/17 14:06:01;;;;;;;1.10;0.90;;;;;;;;;;5081218;28;20026;-78
2023/12/17 14:08:27;;;;;;;0.93;0.65;;;;;;;;;;5065780;28;20059;-79
2023/12/17 14:10:53;;;;;;;1.70;0.90;;;;;;;;;;5061170;28;20021;-79
2023/12/17 14:13:20;;;;;;;1.35;0.80;;;;;;;;;;5062765;28;20045;-78
2023/12/17 14:15:47;;;;;;;1.20;0.73;;;;;;;;;;5060951;28;20099;-79
2023/12/17 14:18:13;;;;;;;0.90;0.80;;;;;;;;;;5059485;28;20104;-78
2023/12/17 14:20:39;;;;;;;0.57;0.57;;;;;;;;;;5058282;28;20029;-79
2023/12/17 14:23:06;;;;;;;0.55;0.50;;;;;;;;;;5070460;28;20030;-78
2023/12/17 14:25:32;;;;;;;0.52;0.47;;;;;;;;;;5061294;28;20016;-79
2023/12/17 14:27:58;;;;;;;1.10;0.70;;;;;;;;;;5077944;28;20079;-79
2023/12/17 14:30:25;;;;;;;0.65;0.60;;;;;;;;;;5062895;28;20040;-78
2023/12/17 14:32:51;;;;;;;1.00;0.90;;;;;;;;;;5073622;28;20069;-79
2023/12/17 14:35:17;;;;;;;0.98;0.88;;;;;;;;;;5057035;28;20084;-78
2023/12/17 14:37:43;;;;;;;0.65;0.65;;;;;;;;;;5056871;28;20072;-78
2023/12/17 14:40:09;;;;;;;1.10;0.82;;;;;;;;;;5061329;28;20084;-79